createdAt,value
2022-11-16T00:01:05.602Z,39.17
2022-11-16T00:04:07.294Z,40.12
2022-11-16T00:07:09.542Z,39.53
2022-11-16T00:10:12.355Z,39.30
2022-11-16T00:13:13.936Z,43.28
2022-11-16T00:16:17.813Z,38.92
2022-11-16T00:19:19.486Z,39.00
2022-11-16T00:22:21.203Z,41.60
2022-11-16T00:25:22.804Z,40.97
2022-11-16T00:28:24.434Z,40.03
2022-11-16T00:31:26.016Z,39.92
2022-11-16T00:34:27.633Z,40.00
2022-11-16T00:37:29.251Z,41.83
2022-11-16T00:40:30.808Z,42.58
2022-11-16T00:43:34.135Z,43.80
2022-11-16T00:46:35.849Z,42.03
2022-11-16T00:49:38.482Z,42.75
2022-11-16T00:52:40.209Z,41.88
2022-11-16T00:55:44.187Z,42.08
2022-11-16T00:58:45.798Z,42.95
2022-11-16T01:01:47.456Z,45.38
2022-11-16T01:04:49.100Z,42.65
2022-11-16T01:07:51.530Z,45.60
2022-11-16T01:10:53.106Z,44.30
2022-11-16T01:13:55.467Z,44.17
2022-11-16T01:16:57.088Z,43.72
2022-11-16T01:19:58.780Z,45.28
2022-11-16T01:23:00.381Z,46.65
2022-11-16T01:26:02.013Z,46.70
2022-11-16T01:29:04.057Z,46.70
2022-11-16T01:32:06.100Z,46.25
2022-11-16T01:35:08.850Z,47.17
2022-11-16T01:38:10.440Z,45.80
2022-11-16T01:41:14.840Z,46.92
2022-11-16T01:44:31.609Z,47.97
2022-11-16T01:47:33.591Z,48.95
2022-11-16T01:50:35.877Z,46.72
2022-11-16T01:53:37.843Z,47.58
2022-11-16T01:56:42.120Z,49.08
2022-11-16T01:59:45.889Z,51.58
2022-11-16T02:02:47.506Z,48.60
2022-11-16T02:06:07.580Z,46.63
2022-11-16T02:09:49.660Z,49.55
2022-11-16T02:13:07.539Z,44.13
2022-11-16T02:16:24.802Z,43.87
2022-11-16T02:19:55.516Z,46.03
2022-11-16T02:23:12.375Z,46.67
2022-11-16T02:26:29.339Z,46.95
2022-11-16T02:29:45.669Z,45.03
2022-11-16T02:32:56.627Z,44.60
2022-11-16T02:36:01.225Z,46.35
2022-11-16T02:39:12.464Z,42.58
2022-11-16T02:42:20.473Z,43.45
2022-11-16T02:45:25.819Z,48.47
2022-11-16T02:48:34.735Z,44.83
2022-11-16T02:51:38.362Z,45.65
2022-11-16T02:54:40.022Z,44.33
2022-11-16T02:57:51.353Z,44.97
2022-11-16T03:01:05.859Z,46.80
2022-11-16T03:04:17.195Z,43.83
2022-11-16T03:07:25.704Z,43.05
2022-11-16T03:10:46.336Z,46.15
2022-11-16T03:13:49.889Z,44.78
2022-11-16T03:16:56.543Z,46.08
2022-11-16T03:20:04.714Z,45.03
2022-11-16T03:23:10.345Z,42.88
2022-11-16T03:26:16.503Z,43.75
2022-11-16T03:29:30.457Z,42.25
2022-11-16T03:32:39.226Z,41.20
2022-11-16T03:35:51.982Z,42.95
2022-11-16T03:38:54.924Z,44.17
2022-11-16T03:42:00.229Z,43.58
2022-11-16T03:45:03.375Z,41.53
2022-11-16T03:48:06.898Z,42.88
2022-11-16T03:51:10.468Z,40.55
2022-11-16T03:54:12.034Z,41.85
2022-11-16T03:57:18.166Z,41.63
2022-11-16T04:00:19.889Z,39.35
2022-11-16T04:03:21.921Z,40.63
2022-11-16T04:06:42.171Z,43.33
2022-11-16T04:10:02.449Z,43.28
2022-11-16T04:13:23.015Z,39.53
2022-11-16T04:16:43.223Z,41.22
2022-11-16T04:20:03.267Z,38.20
2022-11-16T04:23:25.600Z,38.95
2022-11-16T04:26:46.568Z,36.67
2022-11-16T04:29:48.897Z,36.80
2022-11-16T04:33:09.267Z,39.15
2022-11-16T04:36:29.347Z,37.70
2022-11-16T04:39:31.044Z,36.03
2022-11-16T04:42:32.711Z,34.38
2022-11-16T04:45:53.159Z,36.35
2022-11-16T04:48:54.795Z,35.47
2022-11-16T04:51:56.552Z,35.55
2022-11-16T04:54:58.441Z,34.97
2022-11-16T04:58:01.017Z,37.38
2022-11-16T05:01:02.810Z,36.28
2022-11-16T05:04:04.661Z,37.30
2022-11-16T05:07:13.592Z,38.58
2022-11-16T05:10:15.639Z,35.15
2022-11-16T05:13:17.337Z,37.67
2022-11-16T05:16:19.018Z,37.58
2022-11-16T05:19:38.994Z,36.50
2022-11-16T05:22:40.696Z,36.65
2022-11-16T05:25:42.347Z,35.65
2022-11-16T05:28:44.044Z,35.10
2022-11-16T05:31:45.709Z,42.25
2022-11-16T05:34:48.005Z,50.63
2022-11-16T05:37:49.604Z,38.50
2022-11-16T05:40:51.657Z,35.20
2022-11-16T05:43:55.471Z,39.60
2022-11-16T05:46:57.143Z,35.63
2022-11-16T05:49:58.769Z,35.67
2022-11-16T05:53:00.486Z,37.20
2022-11-16T05:56:02.191Z,38.25
2022-11-16T05:59:03.935Z,37.85
2022-11-16T06:02:05.607Z,38.80
2022-11-16T06:05:07.564Z,36.50
2022-11-16T06:08:09.219Z,39.88
2022-11-16T06:11:11.823Z,39.72
2022-11-16T06:14:13.478Z,37.30
2022-11-16T06:17:15.360Z,40.47
2022-11-16T06:20:17.338Z,41.33
2022-11-16T06:23:19.189Z,52.58
2022-11-16T06:26:20.857Z,39.35
2022-11-16T06:29:22.466Z,38.45
2022-11-16T06:32:24.115Z,41.25
2022-11-16T06:35:25.755Z,49.35
2022-11-16T06:38:27.833Z,120.13
2022-11-16T06:41:29.502Z,71.95
2022-11-16T06:44:31.144Z,46.78
2022-11-16T06:47:32.772Z,37.72
2022-11-16T06:50:34.744Z,37.55
2022-11-16T06:53:36.493Z,38.40
2022-11-16T06:56:38.102Z,36.53
2022-11-16T06:59:39.707Z,36.60
2022-11-16T07:02:41.313Z,34.47
2022-11-16T07:05:42.980Z,34.53
2022-11-16T07:08:44.645Z,37.80
2022-11-16T07:11:46.253Z,37.03
2022-11-16T07:14:49.531Z,38.97
2022-11-16T07:17:51.169Z,37.67
2022-11-16T07:20:52.791Z,36.65
2022-11-16T07:23:54.963Z,37.05
2022-11-16T07:26:56.558Z,50.50
2022-11-16T07:29:58.190Z,44.95
2022-11-16T07:32:59.835Z,41.95
2022-11-16T07:36:12.535Z,41.88
2022-11-16T07:39:14.152Z,41.42
2022-11-16T07:42:15.840Z,39.40
2022-11-16T07:45:17.504Z,40.10
2022-11-16T07:48:19.084Z,41.67
2022-11-16T07:51:20.667Z,55.55
2022-11-16T07:54:22.226Z,45.33
2022-11-16T07:57:23.772Z,42.33
2022-11-16T08:00:25.404Z,41.37
2022-11-16T08:03:26.976Z,40.80
2022-11-16T08:06:30.703Z,42.72
2022-11-16T08:09:32.288Z,41.92
2022-11-16T08:12:33.975Z,40.05
2022-11-16T08:15:35.562Z,41.25
2022-11-16T08:18:38.201Z,40.47
2022-11-16T08:21:39.794Z,41.58
2022-11-16T08:24:41.566Z,39.08
2022-11-16T08:27:43.577Z,42.20
2022-11-16T08:30:48.420Z,40.90
2022-11-16T08:33:54.168Z,40.70
2022-11-16T08:36:55.783Z,42.22
2022-11-16T08:39:57.519Z,40.28
2022-11-16T08:42:59.066Z,40.60
2022-11-16T08:46:00.809Z,41.55
2022-11-16T08:49:02.401Z,42.58
2022-11-16T08:52:04.302Z,39.15
2022-11-16T08:55:06.754Z,41.97
2022-11-16T08:58:09.226Z,40.55
2022-11-16T09:01:14.029Z,41.05
2022-11-16T09:04:16.283Z,40.92
2022-11-16T09:07:17.938Z,42.20
2022-11-16T09:10:23.035Z,40.25
2022-11-16T09:13:25.298Z,40.17
2022-11-16T09:16:27.978Z,41.45
2022-11-16T09:19:29.576Z,42.25
2022-11-16T09:22:31.215Z,40.12
2022-11-16T09:25:32.799Z,40.17
2022-11-16T09:28:34.813Z,41.83
2022-11-16T09:31:37.470Z,41.20
2022-11-16T09:34:39.069Z,44.38
2022-11-16T09:37:40.633Z,42.70
2022-11-16T09:40:46.264Z,41.97
2022-11-16T09:44:05.653Z,41.42
2022-11-16T09:47:17.646Z,42.70
2022-11-16T09:50:33.676Z,41.28
2022-11-16T09:53:46.160Z,42.30
2022-11-16T09:56:51.691Z,41.17
2022-11-16T10:00:02.249Z,42.00
2022-11-16T10:03:13.237Z,37.95
2022-11-16T10:06:22.213Z,38.03
2022-11-16T10:09:25.815Z,41.60
2022-11-16T10:12:51.800Z,39.00
2022-11-16T10:16:04.707Z,41.17
2022-11-16T10:19:22.579Z,41.33
2022-11-16T10:22:24.027Z,40.47
2022-11-16T10:26:01.798Z,41.22
2022-11-16T10:29:43.305Z,41.78
2022-11-16T10:32:55.936Z,39.45
2022-11-16T10:35:58.006Z,37.88
2022-11-16T10:39:00.813Z,38.90
2022-11-16T10:42:07.825Z,38.55
2022-11-16T10:45:22.521Z,37.88
2022-11-16T10:48:47.268Z,38.70
2022-11-16T10:51:48.831Z,37.90
2022-11-16T10:54:50.601Z,39.10
2022-11-16T10:57:56.759Z,38.53
2022-11-16T11:00:59.236Z,36.95
2022-11-16T11:04:17.614Z,35.70
2022-11-16T11:07:29.433Z,34.40
2022-11-16T11:10:37.286Z,34.60
2022-11-16T11:13:38.855Z,35.13
2022-11-16T11:16:41.643Z,35.13
2022-11-16T11:19:43.211Z,32.13
2022-11-16T11:23:00.406Z,33.47
2022-11-16T11:26:01.979Z,35.13
2022-11-16T11:29:29.931Z,32.83
2022-11-16T11:32:40.252Z,34.75
2022-11-16T11:35:42.330Z,34.20
2022-11-16T11:39:05.879Z,35.30
2022-11-16T11:42:13.476Z,33.28
2022-11-16T11:49:00.061Z,34.03
2022-11-16T11:52:27.698Z,33.10
2022-11-16T11:55:29.743Z,32.23
2022-11-16T11:58:34.258Z,29.77
2022-11-16T12:02:29.163Z,29.50
2022-11-16T12:06:00.839Z,31.62
2022-11-16T12:09:10.618Z,28.77
2022-11-16T12:12:32.794Z,32.20
2022-11-16T12:16:05.338Z,30.55
2022-11-16T12:19:39.081Z,31.65
2022-11-16T12:23:08.469Z,30.50
2022-11-16T12:26:22.156Z,30.67
2022-11-16T12:29:40.848Z,28.95
2022-11-16T12:33:04.429Z,29.30
2022-11-16T12:36:34.295Z,30.30
2022-11-16T12:39:44.510Z,29.37
2022-11-16T12:42:51.786Z,30.55
2022-11-16T12:46:12.661Z,31.17
2022-11-16T12:49:35.714Z,29.87
2022-11-16T12:52:46.019Z,32.03
2022-11-16T12:55:56.508Z,31.08
2022-11-16T12:59:07.341Z,32.47
2022-11-16T13:02:41.312Z,35.28
2022-11-16T13:05:48.800Z,32.75
2022-11-16T13:12:03.170Z,33.58
2022-11-16T13:15:05.902Z,36.20
2022-11-16T13:18:14.337Z,35.55
2022-11-16T13:21:21.698Z,33.00
2022-11-16T13:24:46.189Z,35.67
2022-11-16T13:27:53.780Z,36.72
2022-11-16T13:31:38.395Z,34.45
2022-11-16T13:34:41.077Z,34.35
2022-11-16T13:37:44.510Z,36.05
2022-11-16T13:40:46.152Z,35.83
2022-11-16T13:43:51.024Z,34.78
2022-11-16T13:46:59.639Z,35.47
2022-11-16T13:50:07.001Z,35.33
2022-11-16T13:56:49.882Z,34.83
2022-11-16T14:00:10.189Z,34.10
2022-11-16T14:03:11.857Z,35.63
2022-11-16T14:06:13.349Z,33.25
2022-11-16T14:09:44.067Z,35.60
2022-11-16T14:12:53.544Z,35.22
2022-11-16T14:16:20.076Z,35.75
2022-11-16T14:19:44.918Z,36.70
2022-11-16T14:23:08.565Z,37.53
2022-11-16T14:26:27.976Z,36.65
2022-11-16T14:29:52.423Z,39.75
2022-11-16T14:32:55.723Z,36.75
2022-11-16T14:35:58.069Z,35.47
2022-11-16T14:39:15.296Z,35.88
2022-11-16T14:42:21.541Z,37.03
2022-11-16T14:45:26.165Z,34.15
2022-11-16T14:48:28.153Z,35.22
2022-11-16T14:51:44.937Z,33.45
2022-11-16T14:54:57.487Z,35.00
2022-11-16T14:58:14.130Z,34.53
2022-11-16T15:01:18.238Z,33.10
2022-11-16T15:04:21.965Z,31.80
2022-11-16T15:07:24.756Z,33.85
2022-11-16T15:10:28.430Z,33.42
2022-11-16T15:13:30.264Z,34.17
2022-11-16T15:16:31.840Z,32.30
2022-11-16T15:19:33.690Z,31.12
2022-11-16T15:22:41.250Z,31.33
2022-11-16T15:28:50.002Z,31.08
2022-11-16T15:31:52.013Z,34.10
2022-11-16T15:34:54.485Z,33.83
2022-11-16T15:38:17.883Z,34.13
2022-11-16T15:41:19.834Z,28.25
2022-11-16T15:44:23.569Z,28.98
2022-11-16T15:47:25.985Z,30.10
2022-11-16T15:50:28.159Z,27.40
2022-11-16T15:53:38.686Z,28.27
2022-11-16T15:56:41.297Z,26.67
2022-11-16T15:59:55.242Z,26.85
2022-11-16T16:03:05.442Z,25.37
2022-11-16T16:06:08.651Z,26.08
2022-11-16T16:09:21.346Z,30.75
2022-11-16T16:12:27.954Z,25.73
2022-11-16T16:15:36.820Z,25.33
2022-11-16T16:18:45.526Z,27.33
2022-11-16T16:21:47.264Z,24.00
2022-11-16T16:24:48.965Z,23.75
2022-11-16T16:27:50.682Z,26.20
2022-11-16T16:30:52.521Z,25.05
2022-11-16T16:33:55.637Z,22.95
2022-11-16T16:36:57.296Z,21.20
2022-11-16T16:39:59.771Z,20.42
2022-11-16T16:43:01.371Z,20.10
2022-11-16T16:46:04.111Z,21.70
2022-11-16T16:49:06.074Z,19.33
2022-11-16T16:52:08.408Z,19.58
2022-11-16T16:55:10.361Z,20.15
2022-11-16T16:58:13.754Z,21.85
2022-11-16T17:01:15.415Z,21.70
2022-11-16T17:04:17.362Z,17.85
2022-11-16T17:07:19.327Z,14.75
2022-11-16T17:10:20.993Z,14.50
2022-11-16T17:13:22.554Z,15.38
2022-11-16T17:16:24.244Z,14.70
2022-11-16T17:19:27.263Z,14.43
2022-11-16T17:22:29.216Z,13.05
2022-11-16T17:25:33.433Z,12.52
2022-11-16T17:28:35.481Z,11.90
2022-11-16T17:31:37.509Z,12.40
2022-11-16T17:34:41.799Z,11.90
2022-11-16T17:37:43.872Z,12.82
2022-11-16T17:40:45.925Z,20.37
2022-11-16T17:43:47.766Z,18.30
2022-11-16T17:47:08.540Z,21.80
2022-11-16T17:50:10.488Z,15.55
2022-11-16T17:53:12.290Z,19.83
2022-11-16T17:56:19.516Z,17.98
2022-11-16T17:59:23.837Z,22.00
2022-11-16T18:02:29.632Z,18.02
2022-11-16T18:05:31.498Z,20.85
2022-11-16T18:08:34.651Z,17.02
2022-11-16T18:11:36.772Z,31.85
2022-11-16T18:14:38.725Z,31.48
2022-11-16T18:17:40.439Z,19.05
2022-11-16T18:20:42.354Z,30.92
2022-11-16T18:23:44.850Z,24.87
2022-11-16T18:26:46.895Z,42.03
2022-11-16T18:29:48.566Z,44.40
2022-11-16T18:32:50.663Z,48.10
2022-11-16T18:35:52.369Z,27.58
2022-11-16T18:38:54.475Z,21.05
2022-11-16T18:41:57.361Z,23.10
2022-11-16T18:44:59.455Z,19.80
2022-11-16T18:48:01.471Z,16.05
2022-11-16T18:51:05.481Z,17.85
2022-11-16T18:54:07.638Z,15.77
2022-11-16T18:57:09.825Z,14.95
2022-11-16T19:00:15.560Z,18.23
2022-11-16T19:03:17.673Z,27.92
2022-11-16T19:06:20.044Z,15.40
2022-11-16T19:09:22.080Z,12.00
2022-11-16T19:12:24.291Z,13.88
2022-11-16T19:15:26.845Z,101.68
2022-11-16T19:18:28.981Z,21.02
2022-11-16T19:21:32.059Z,31.00
2022-11-16T19:24:34.204Z,15.80
2022-11-16T19:27:36.209Z,12.90
2022-11-16T19:30:38.233Z,14.13
2022-11-16T19:33:40.868Z,21.52
2022-11-16T19:36:42.551Z,15.27
2022-11-16T19:39:44.132Z,20.08
2022-11-16T19:42:46.806Z,16.20
2022-11-16T19:45:48.833Z,21.35
2022-11-16T19:48:51.784Z,19.10
2022-11-16T19:51:53.798Z,26.45
2022-11-16T19:54:56.470Z,19.85
2022-11-16T19:57:58.515Z,28.02
2022-11-16T20:01:06.123Z,30.95
2022-11-16T20:04:09.507Z,15.00
2022-11-16T20:07:13.313Z,52.08
2022-11-16T20:10:15.648Z,19.67
2022-11-16T20:13:18.450Z,18.67
2022-11-16T20:16:23.203Z,20.08
2022-11-16T20:19:25.226Z,37.17
2022-11-16T20:22:27.372Z,30.15
2022-11-16T20:25:29.981Z,16.20
2022-11-16T20:28:40.559Z,55.15
2022-11-16T20:31:44.722Z,25.02
2022-11-16T20:34:46.780Z,26.27
2022-11-16T20:37:48.689Z,22.40
2022-11-16T20:40:51.405Z,38.85
2022-11-16T20:43:55.744Z,23.20
2022-11-16T20:46:57.781Z,16.08
2022-11-16T20:49:59.653Z,23.23
2022-11-16T20:53:05.138Z,32.70
2022-11-16T20:56:10.625Z,22.05
2022-11-16T20:59:12.285Z,18.02
2022-11-16T21:02:14.205Z,17.23
2022-11-16T21:05:16.002Z,20.73
2022-11-16T21:08:18.624Z,17.77
2022-11-16T21:11:24.945Z,23.30
2022-11-16T21:14:26.788Z,17.55
2022-11-16T21:17:28.629Z,20.77
2022-11-16T21:20:30.221Z,20.27
2022-11-16T21:23:35.034Z,21.60
2022-11-16T21:26:37.485Z,18.23
2022-11-16T21:29:39.070Z,18.20
2022-11-16T21:32:40.676Z,28.45
2022-11-16T21:35:42.326Z,26.83
2022-11-16T21:38:44.701Z,21.20
2022-11-16T21:41:46.275Z,32.17
2022-11-16T21:44:47.866Z,27.55
2022-11-16T21:47:50.448Z,22.55
2022-11-16T21:51:10.330Z,20.37
2022-11-16T21:54:11.960Z,22.75
2022-11-16T21:57:14.977Z,19.67
2022-11-16T22:00:16.970Z,21.77
2022-11-16T22:03:18.570Z,18.37
2022-11-16T22:06:38.785Z,18.27
2022-11-16T22:09:40.351Z,20.42
2022-11-16T22:12:41.951Z,21.17
2022-11-16T22:15:43.525Z,26.15
2022-11-16T22:18:45.232Z,23.77
2022-11-16T22:21:46.858Z,24.20
2022-11-16T22:24:48.602Z,23.92
2022-11-16T22:28:18.978Z,25.42
2022-11-16T22:31:15.579Z,24.27
2022-11-16T22:34:17.129Z,26.17
2022-11-16T22:37:18.699Z,28.05
2022-11-16T22:40:20.252Z,25.02
2022-11-16T22:43:24.165Z,25.25
2022-11-16T22:46:25.747Z,22.30
2022-11-16T22:49:27.358Z,23.23
2022-11-16T22:52:29.252Z,24.98
2022-11-16T22:55:34.120Z,23.23
2022-11-16T22:58:36.918Z,22.87
2022-11-16T23:01:38.558Z,22.40
2022-11-16T23:04:40.199Z,24.27
2022-11-16T23:07:43.932Z,23.30
2022-11-16T23:11:04.133Z,23.77
2022-11-16T23:14:26.331Z,25.83
2022-11-16T23:17:27.932Z,24.95
2022-11-16T23:20:48.202Z,24.23
2022-11-16T23:24:25.356Z,24.40
2022-11-16T23:27:35.246Z,22.50
2022-11-16T23:30:36.982Z,20.85
2022-11-16T23:33:44.682Z,21.98
2022-11-16T23:36:46.342Z,21.20
2022-11-16T23:39:48.090Z,21.10
2022-11-16T23:43:08.707Z,21.20
2022-11-16T23:46:10.359Z,20.83
2022-11-16T23:49:11.945Z,21.33
2022-11-16T23:52:13.939Z,21.83
2022-11-16T23:55:15.571Z,21.23
2022-11-16T23:58:17.162Z,21.17
